sensor_id;sensor_type;location;lat;lon;timestamp;temperature;humidity
20208;DHT22;10263;48.716;8.760;2023-04-30T00:02:10;10.20;99.90
20208;DHT22;10263;48.716;8.760;2023-04-30T00:04:37;10.20;99.90
20208;DHT22;10263;48.716;8.760;2023-04-30T00:07:04;10.50;99.90
20208;DHT22;10263;48.716;8.760;2023-04-30T00:09:30;10.40;99.90
20208;DHT22;10263;48.716;8.760;2023-04-30T00:11:57;10.40;99.90
20208;DHT22;10263;48.716;8.760;2023-04-30T00:14:25;9.90;99.90
20208;DHT22;10263;48.716;8.760;2023-04-30T00:16:52;10.20;99.90
20208;DHT22;10263;48.716;8.760;2023-04-30T00:19:19;9.80;99.90
20208;DHT22;10263;48.716;8.760;2023-04-30T00:21:46;10.40;99.90
20208;DHT22;10263;48.716;8.760;2023-04-30T00:24:13;10.20;99.90
20208;DHT22;10263;48.716;8.760;2023-04-30T00:26:39;10.00;99.90
20208;DHT22;10263;48.716;8.760;2023-04-30T00:29:07;9.90;99.90
20208;DHT22;10263;48.716;8.760;2023-04-30T00:31:35;10.00;99.90
20208;DHT22;10263;48.716;8.760;2023-04-30T00:34:02;10.20;99.90
20208;DHT22;10263;48.716;8.760;2023-04-30T00:36:28;10.00;99.90
20208;DHT22;10263;48.716;8.760;2023-04-30T00:38:56;10.30;99.90
20208;DHT22;10263;48.716;8.760;2023-04-30T00:41:24;9.90;99.90
20208;DHT22;10263;48.716;8.760;2023-04-30T00:43:51;10.30;99.90
20208;DHT22;10263;48.716;8.760;2023-04-30T00:46:18;10.30;99.90
20208;DHT22;10263;48.716;8.760;2023-04-30T00:48:46;10.30;99.90
20208;DHT22;10263;48.716;8.760;2023-04-30T00:51:13;10.20;99.90
20208;DHT22;10263;48.716;8.760;2023-04-30T00:53:40;10.00;99.90
20208;DHT22;10263;48.716;8.760;2023-04-30T00:56:08;10.30;99.90
20208;DHT22;10263;48.716;8.760;2023-04-30T00:58:35;10.40;99.90
20208;DHT22;10263;48.716;8.760;2023-04-30T01:03:31;10.10;99.90
20208;DHT22;10263;48.716;8.760;2023-04-30T01:06:01;10.10;99.90
20208;DHT22;10263;48.716;8.760;2023-04-30T01:08:29;10.10;99.90
20208;DHT22;10263;48.716;8.760;2023-04-30T01:11:06;10.10;99.90
20208;DHT22;10263;48.716;8.760;2023-04-30T01:13:41;10.00;99.90
20208;DHT22;10263;48.716;8.760;2023-04-30T01:16:14;10.30;99.90
20208;DHT22;10263;48.716;8.760;2023-04-30T01:18:48;10.10;99.90
20208;DHT22;10263;48.716;8.760;2023-04-30T01:21:18;10.00;99.90
20208;DHT22;10263;48.716;8.760;2023-04-30T01:24:12;11.30;99.90
20208;DHT22;10263;48.716;8.760;2023-04-30T01:26:52;9.90;99.90
20208;DHT22;10263;48.716;8.760;2023-04-30T01:29:21;10.00;99.90
20208;DHT22;10263;48.716;8.760;2023-04-30T01:31:50;9.90;99.90
20208;DHT22;10263;48.716;8.760;2023-04-30T01:34:16;10.00;99.90
20208;DHT22;10263;48.716;8.760;2023-04-30T01:36:56;9.80;99.90
20208;DHT22;10263;48.716;8.760;2023-04-30T01:39:42;10.20;99.90
20208;DHT22;10263;48.716;8.760;2023-04-30T01:42:18;10.00;99.90
20208;DHT22;10263;48.716;8.760;2023-04-30T01:45:17;10.20;99.90
20208;DHT22;10263;48.716;8.760;2023-04-30T01:47:54;9.80;99.90
20208;DHT22;10263;48.716;8.760;2023-04-30T01:50:27;10.30;99.90
20208;DHT22;10263;48.716;8.760;2023-04-30T01:52:59;9.60;99.90
20208;DHT22;10263;48.716;8.760;2023-04-30T01:55:29;9.90;99.90
20208;DHT22;10263;48.716;8.760;2023-04-30T01:58:02;9.80;99.90
20208;DHT22;10263;48.716;8.760;2023-04-30T02:00:30;10.10;99.90
20208;DHT22;10263;48.716;8.760;2023-04-30T02:02:58;9.80;99.90
20208;DHT22;10263;48.716;8.760;2023-04-30T02:05:25;9.70;99.90
20208;DHT22;10263;48.716;8.760;2023-04-30T02:07:52;9.80;99.90
20208;DHT22;10263;48.716;8.760;2023-04-30T02:10:21;9.70;99.90
20208;DHT22;10263;48.716;8.760;2023-04-30T02:12:48;9.80;99.90
20208;DHT22;10263;48.716;8.760;2023-04-30T02:15:15;9.90;99.90
20208;DHT22;10263;48.716;8.760;2023-04-30T02:17:43;9.70;99.90
20208;DHT22;10263;48.716;8.760;2023-04-30T02:22:37;9.60;99.90
20208;DHT22;10263;48.716;8.760;2023-04-30T02:25:05;9.90;99.90
20208;DHT22;10263;48.716;8.760;2023-04-30T02:27:32;9.60;99.90
20208;DHT22;10263;48.716;8.760;2023-04-30T02:29:59;9.50;99.90
20208;DHT22;10263;48.716;8.760;2023-04-30T02:32:27;9.60;99.90
20208;DHT22;10263;48.716;8.760;2023-04-30T02:34:55;9.80;99.90
20208;DHT22;10263;48.716;8.760;2023-04-30T02:37:22;9.60;99.90
20208;DHT22;10263;48.716;8.760;2023-04-30T02:39:49;9.50;99.90
20208;DHT22;10263;48.716;8.760;2023-04-30T02:42:16;9.70;99.90
20208;DHT22;10263;48.716;8.760;2023-04-30T02:44:43;9.40;99.90
20208;DHT22;10263;48.716;8.760;2023-04-30T02:49:37;9.70;99.90
20208;DHT22;10263;48.716;8.760;2023-04-30T02:52:05;9.40;99.90
20208;DHT22;10263;48.716;8.760;2023-04-30T02:54:34;9.10;99.90
20208;DHT22;10263;48.716;8.760;2023-04-30T02:57:01;9.40;99.90
20208;DHT22;10263;48.716;8.760;2023-04-30T03:01:55;9.40;99.90
20208;DHT22;10263;48.716;8.760;2023-04-30T03:04:22;9.60;99.90
20208;DHT22;10263;48.716;8.760;2023-04-30T03:09:17;9.70;99.90
20208;DHT22;10263;48.716;8.760;2023-04-30T03:11:44;9.80;99.90
20208;DHT22;10263;48.716;8.760;2023-04-30T03:14:11;9.60;99.90
20208;DHT22;10263;48.716;8.760;2023-04-30T03:16:37;9.30;99.90
20208;DHT22;10263;48.716;8.760;2023-04-30T03:21:32;9.20;99.90
20208;DHT22;10263;48.716;8.760;2023-04-30T03:23:58;9.40;99.90
20208;DHT22;10263;48.716;8.760;2023-04-30T03:26:27;9.50;99.90
20208;DHT22;10263;48.716;8.760;2023-04-30T03:31:21;9.50;99.90
20208;DHT22;10263;48.716;8.760;2023-04-30T03:33:47;9.40;99.90
20208;DHT22;10263;48.716;8.760;2023-04-30T03:36:14;9.30;99.90
20208;DHT22;10263;48.716;8.760;2023-04-30T03:38:41;9.60;99.90
20208;DHT22;10263;48.716;8.760;2023-04-30T03:41:08;9.50;99.90
20208;DHT22;10263;48.716;8.760;2023-04-30T03:43:37;9.30;99.90
20208;DHT22;10263;48.716;8.760;2023-04-30T03:46:04;9.00;99.90
20208;DHT22;10263;48.716;8.760;2023-04-30T03:48:31;8.90;99.90
20208;DHT22;10263;48.716;8.760;2023-04-30T03:50:58;9.50;99.90
20208;DHT22;10263;48.716;8.760;2023-04-30T03:53:24;9.00;99.90
20208;DHT22;10263;48.716;8.760;2023-04-30T03:55:52;9.30;99.90
20208;DHT22;10263;48.716;8.760;2023-04-30T03:58:20;9.30;99.90
20208;DHT22;10263;48.716;8.760;2023-04-30T04:00:48;9.30;99.90
20208;DHT22;10263;48.716;8.760;2023-04-30T04:03:15;8.80;99.90
20208;DHT22;10263;48.716;8.760;2023-04-30T04:05:42;8.80;99.90
20208;DHT22;10263;48.716;8.760;2023-04-30T04:08:09;9.20;99.90
20208;DHT22;10263;48.716;8.760;2023-04-30T04:10:37;9.10;99.90
20208;DHT22;10263;48.716;8.760;2023-04-30T04:13:04;8.80;99.90
20208;DHT22;10263;48.716;8.760;2023-04-30T04:15:33;8.90;99.90
20208;DHT22;10263;48.716;8.760;2023-04-30T04:18:02;8.90;99.90
20208;DHT22;10263;48.716;8.760;2023-04-30T04:20:29;9.10;99.90
20208;DHT22;10263;48.716;8.760;2023-04-30T04:25:23;9.30;99.90
20208;DHT22;10263;48.716;8.760;2023-04-30T04:27:50;9.30;99.90
20208;DHT22;10263;48.716;8.760;2023-04-30T04:30:17;9.20;99.90
20208;DHT22;10263;48.716;8.760;2023-04-30T04:32:46;9.20;99.90
20208;DHT22;10263;48.716;8.760;2023-04-30T04:35:16;9.00;99.90
20208;DHT22;10263;48.716;8.760;2023-04-30T04:37:43;9.00;99.90
20208;DHT22;10263;48.716;8.760;2023-04-30T04:40:10;9.10;99.90
20208;DHT22;10263;48.716;8.760;2023-04-30T04:42:38;9.20;99.90
20208;DHT22;10263;48.716;8.760;2023-04-30T04:45:06;8.90;99.90
20208;DHT22;10263;48.716;8.760;2023-04-30T04:47:33;8.90;99.90
20208;DHT22;10263;48.716;8.760;2023-04-30T04:52:30;8.90;99.90
20208;DHT22;10263;48.716;8.760;2023-04-30T04:54:57;9.20;99.90
20208;DHT22;10263;48.716;8.760;2023-04-30T04:57:24;9.40;99.90
20208;DHT22;10263;48.716;8.760;2023-04-30T04:59:52;9.30;99.90
20208;DHT22;10263;48.716;8.760;2023-04-30T05:04:48;9.10;99.90
20208;DHT22;10263;48.716;8.760;2023-04-30T05:07:17;9.10;99.90
20208;DHT22;10263;48.716;8.760;2023-04-30T05:09:45;9.10;99.90
20208;DHT22;10263;48.716;8.760;2023-04-30T05:12:12;9.40;99.90
20208;DHT22;10263;48.716;8.760;2023-04-30T05:14:39;9.30;99.90
20208;DHT22;10263;48.716;8.760;2023-04-30T05:17:06;9.60;99.90
20208;DHT22;10263;48.716;8.760;2023-04-30T05:22:00;9.50;99.90
20208;DHT22;10263;48.716;8.760;2023-04-30T05:24:27;9.20;99.90
20208;DHT22;10263;48.716;8.760;2023-04-30T05:26:56;9.10;99.90
20208;DHT22;10263;48.716;8.760;2023-04-30T05:31:50;9.40;99.90
20208;DHT22;10263;48.716;8.760;2023-04-30T05:34:16;9.70;99.90
20208;DHT22;10263;48.716;8.760;2023-04-30T05:39:10;9.70;99.90
20208;DHT22;10263;48.716;8.760;2023-04-30T05:41:37;9.70;99.90
20208;DHT22;10263;48.716;8.760;2023-04-30T05:44:05;9.50;99.90
20208;DHT22;10263;48.716;8.760;2023-04-30T05:46:32;10.00;99.90
20208;DHT22;10263;48.716;8.760;2023-04-30T05:48:59;9.90;99.90
20208;DHT22;10263;48.716;8.760;2023-04-30T05:51:26;10.10;99.90
20208;DHT22;10263;48.716;8.760;2023-04-30T05:53:53;10.00;99.90
20208;DHT22;10263;48.716;8.760;2023-04-30T05:58:49;10.50;99.90
20208;DHT22;10263;48.716;8.760;2023-04-30T06:01:18;10.40;99.90
20208;DHT22;10263;48.716;8.760;2023-04-30T06:03:45;10.50;99.90
20208;DHT22;10263;48.716;8.760;2023-04-30T06:06:12;11.20;99.90
20208;DHT22;10263;48.716;8.760;2023-04-30T06:08:39;11.70;99.90
20208;DHT22;10263;48.716;8.760;2023-04-30T06:11:09;12.40;99.90
20208;DHT22;10263;48.716;8.760;2023-04-30T06:13:36;11.20;99.90
20208;DHT22;10263;48.716;8.760;2023-04-30T06:16:03;13.00;99.90
20208;DHT22;10263;48.716;8.760;2023-04-30T06:18:31;13.20;99.90
20208;DHT22;10263;48.716;8.760;2023-04-30T06:20:58;13.70;99.90
20208;DHT22;10263;48.716;8.760;2023-04-30T06:23:25;13.40;99.90
20208;DHT22;10263;48.716;8.760;2023-04-30T06:25:51;13.60;99.90
20208;DHT22;10263;48.716;8.760;2023-04-30T06:28:18;13.00;99.90
20208;DHT22;10263;48.716;8.760;2023-04-30T06:30:45;12.80;99.90
20208;DHT22;10263;48.716;8.760;2023-04-30T06:33:12;12.70;99.90
20208;DHT22;10263;48.716;8.760;2023-04-30T06:35:40;12.30;99.90
20208;DHT22;10263;48.716;8.760;2023-04-30T06:38:07;12.20;99.90
20208;DHT22;10263;48.716;8.760;2023-04-30T06:40:34;12.20;99.90
20208;DHT22;10263;48.716;8.760;2023-04-30T06:43:01;12.00;99.90
20208;DHT22;10263;48.716;8.760;2023-04-30T06:45:28;11.90;99.90
20208;DHT22;10263;48.716;8.760;2023-04-30T06:47:55;11.70;99.90
20208;DHT22;10263;48.716;8.760;2023-04-30T06:50:22;11.80;99.90
20208;DHT22;10263;48.716;8.760;2023-04-30T06:52:50;12.20;99.90
20208;DHT22;10263;48.716;8.760;2023-04-30T06:55:17;12.10;99.90
20208;DHT22;10263;48.716;8.760;2023-04-30T06:57:44;12.20;99.90
20208;DHT22;10263;48.716;8.760;2023-04-30T07:00:11;12.40;99.90
20208;DHT22;10263;48.716;8.760;2023-04-30T07:02:39;12.50;99.90
20208;DHT22;10263;48.716;8.760;2023-04-30T07:05:06;12.50;99.90
20208;DHT22;10263;48.716;8.760;2023-04-30T07:10:02;13.30;99.90
20208;DHT22;10263;48.716;8.760;2023-04-30T07:14:56;13.50;99.90
20208;DHT22;10263;48.716;8.760;2023-04-30T07:17:23;14.20;99.90
20208;DHT22;10263;48.716;8.760;2023-04-30T07:19:50;14.20;99.90
20208;DHT22;10263;48.716;8.760;2023-04-30T07:22:17;14.30;99.90
20208;DHT22;10263;48.716;8.760;2023-04-30T07:24:43;15.00;99.90
20208;DHT22;10263;48.716;8.760;2023-04-30T07:27:12;14.70;99.90
20208;DHT22;10263;48.716;8.760;2023-04-30T07:32:05;14.80;99.90
20208;DHT22;10263;48.716;8.760;2023-04-30T07:34:32;14.80;99.90
20208;DHT22;10263;48.716;8.760;2023-04-30T07:39:26;15.10;99.90
20208;DHT22;10263;48.716;8.760;2023-04-30T07:41:53;15.10;99.90
20208;DHT22;10263;48.716;8.760;2023-04-30T07:44:21;15.30;99.90
20208;DHT22;10263;48.716;8.760;2023-04-30T07:46:47;15.30;99.90
20208;DHT22;10263;48.716;8.760;2023-04-30T07:49:14;15.20;99.90
20208;DHT22;10263;48.716;8.760;2023-04-30T07:51:41;15.40;99.90
20208;DHT22;10263;48.716;8.760;2023-04-30T07:56:35;15.60;99.90
20208;DHT22;10263;48.716;8.760;2023-04-30T07:59:02;15.60;99.90
20208;DHT22;10263;48.716;8.760;2023-04-30T08:01:30;15.40;99.90
20208;DHT22;10263;48.716;8.760;2023-04-30T08:03:57;15.10;99.90
20208;DHT22;10263;48.716;8.760;2023-04-30T08:06:24;14.80;99.90
20208;DHT22;10263;48.716;8.760;2023-04-30T08:08:51;15.00;99.90
20208;DHT22;10263;48.716;8.760;2023-04-30T08:11:18;15.00;99.90
20208;DHT22;10263;48.716;8.760;2023-04-30T08:13:46;14.80;99.90
20208;DHT22;10263;48.716;8.760;2023-04-30T08:16:13;15.00;99.90
20208;DHT22;10263;48.716;8.760;2023-04-30T08:18:41;14.80;99.90
20208;DHT22;10263;48.716;8.760;2023-04-30T08:21:10;15.40;99.90
20208;DHT22;10263;48.716;8.760;2023-04-30T08:23:37;15.00;99.90
20208;DHT22;10263;48.716;8.760;2023-04-30T08:26:04;15.10;99.90
20208;DHT22;10263;48.716;8.760;2023-04-30T08:28:31;16.40;99.90
20208;DHT22;10263;48.716;8.760;2023-04-30T08:30:58;15.30;99.90
20208;DHT22;10263;48.716;8.760;2023-04-30T08:33:25;15.40;99.90
20208;DHT22;10263;48.716;8.760;2023-04-30T08:35:53;15.60;99.90
20208;DHT22;10263;48.716;8.760;2023-04-30T08:38:20;15.90;99.90
20208;DHT22;10263;48.716;8.760;2023-04-30T08:40:51;15.40;99.90
20208;DHT22;10263;48.716;8.760;2023-04-30T08:43:18;15.50;99.90
20208;DHT22;10263;48.716;8.760;2023-04-30T08:45:46;15.40;99.90
20208;DHT22;10263;48.716;8.760;2023-04-30T08:48:14;15.10;99.90
20208;DHT22;10263;48.716;8.760;2023-04-30T08:50:41;15.20;99.90
20208;DHT22;10263;48.716;8.760;2023-04-30T08:53:10;15.10;99.90
20208;DHT22;10263;48.716;8.760;2023-04-30T08:55:38;15.40;99.90
20208;DHT22;10263;48.716;8.760;2023-04-30T08:58:06;14.80;99.90
20208;DHT22;10263;48.716;8.760;2023-04-30T09:00:36;14.90;99.90
20208;DHT22;10263;48.716;8.760;2023-04-30T09:03:04;15.10;99.90
20208;DHT22;10263;48.716;8.760;2023-04-30T09:05:31;15.20;99.90
20208;DHT22;10263;48.716;8.760;2023-04-30T09:07:58;15.00;99.90
20208;DHT22;10263;48.716;8.760;2023-04-30T09:10:26;14.80;99.90
20208;DHT22;10263;48.716;8.760;2023-04-30T09:12:59;14.70;99.90
20208;DHT22;10263;48.716;8.760;2023-04-30T09:15:27;14.80;99.90
20208;DHT22;10263;48.716;8.760;2023-04-30T09:18:15;14.50;99.90
20208;DHT22;10263;48.716;8.760;2023-04-30T09:20:57;14.90;99.90
20208;DHT22;10263;48.716;8.760;2023-04-30T09:23:25;14.80;99.90
20208;DHT22;10263;48.716;8.760;2023-04-30T09:25:53;14.60;99.90
20208;DHT22;10263;48.716;8.760;2023-04-30T09:28:21;14.50;99.90
20208;DHT22;10263;48.716;8.760;2023-04-30T09:30:50;14.70;99.90
20208;DHT22;10263;48.716;8.760;2023-04-30T09:33:17;14.50;99.90
20208;DHT22;10263;48.716;8.760;2023-04-30T09:35:44;14.60;99.90
20208;DHT22;10263;48.716;8.760;2023-04-30T09:38:25;14.70;99.90
20208;DHT22;10263;48.716;8.760;2023-04-30T09:40:54;14.50;99.90
20208;DHT22;10263;48.716;8.760;2023-04-30T09:43:21;14.90;99.90
20208;DHT22;10263;48.716;8.760;2023-04-30T09:45:48;14.60;99.90
20208;DHT22;10263;48.716;8.760;2023-04-30T09:48:17;15.00;99.90
20208;DHT22;10263;48.716;8.760;2023-04-30T09:50:44;14.60;99.90
20208;DHT22;10263;48.716;8.760;2023-04-30T09:53:12;14.60;99.90
20208;DHT22;10263;48.716;8.760;2023-04-30T09:55:42;14.90;99.90
20208;DHT22;10263;48.716;8.760;2023-04-30T09:58:11;14.90;99.90
20208;DHT22;10263;48.716;8.760;2023-04-30T10:00:39;15.40;99.90
20208;DHT22;10263;48.716;8.760;2023-04-30T10:03:07;15.10;99.90
20208;DHT22;10263;48.716;8.760;2023-04-30T10:05:36;14.90;99.90
20208;DHT22;10263;48.716;8.760;2023-04-30T10:08:14;15.10;99.90
20208;DHT22;10263;48.716;8.760;2023-04-30T10:10:46;15.30;99.90
20208;DHT22;10263;48.716;8.760;2023-04-30T10:13:18;15.40;99.90
20208;DHT22;10263;48.716;8.760;2023-04-30T10:15:50;15.20;99.90
20208;DHT22;10263;48.716;8.760;2023-04-30T10:18:20;15.40;99.90
20208;DHT22;10263;48.716;8.760;2023-04-30T10:20:50;15.40;99.90
20208;DHT22;10263;48.716;8.760;2023-04-30T10:23:18;15.60;99.90
20208;DHT22;10263;48.716;8.760;2023-04-30T10:25:46;15.60;99.90
20208;DHT22;10263;48.716;8.760;2023-04-30T10:28:14;15.70;99.90
20208;DHT22;10263;48.716;8.760;2023-04-30T10:30:42;16.00;99.90
20208;DHT22;10263;48.716;8.760;2023-04-30T10:33:17;15.90;99.90
20208;DHT22;10263;48.716;8.760;2023-04-30T10:35:50;16.10;99.90
20208;DHT22;10263;48.716;8.760;2023-04-30T10:38:21;15.80;99.90
20208;DHT22;10263;48.716;8.760;2023-04-30T10:40:49;16.30;99.90
20208;DHT22;10263;48.716;8.760;2023-04-30T10:43:17;16.60;99.90
20208;DHT22;10263;48.716;8.760;2023-04-30T10:45:47;16.00;99.90
20208;DHT22;10263;48.716;8.760;2023-04-30T10:48:15;16.30;99.90
20208;DHT22;10263;48.716;8.760;2023-04-30T10:50:50;16.70;99.90
20208;DHT22;10263;48.716;8.760;2023-04-30T10:53:18;16.80;99.90
20208;DHT22;10263;48.716;8.760;2023-04-30T10:55:46;16.40;99.90
20208;DHT22;10263;48.716;8.760;2023-04-30T10:58:25;16.80;99.90
20208;DHT22;10263;48.716;8.760;2023-04-30T11:01:01;16.70;99.90
20208;DHT22;10263;48.716;8.760;2023-04-30T11:03:29;16.60;99.90
20208;DHT22;10263;48.716;8.760;2023-04-30T11:05:57;16.60;99.90
20208;DHT22;10263;48.716;8.760;2023-04-30T11:08:34;16.80;99.90
20208;DHT22;10263;48.716;8.760;2023-04-30T11:13:38;16.70;99.90
20208;DHT22;10263;48.716;8.760;2023-04-30T11:16:08;16.80;99.90
20208;DHT22;10263;48.716;8.760;2023-04-30T11:18:41;16.50;99.90
20208;DHT22;10263;48.716;8.760;2023-04-30T11:21:08;16.80;99.90
20208;DHT22;10263;48.716;8.760;2023-04-30T11:23:36;16.60;99.90
20208;DHT22;10263;48.716;8.760;2023-04-30T11:26:02;16.80;99.90
20208;DHT22;10263;48.716;8.760;2023-04-30T11:28:32;16.40;99.90
20208;DHT22;10263;48.716;8.760;2023-04-30T11:31:00;16.70;99.90
20208;DHT22;10263;48.716;8.760;2023-04-30T11:33:30;16.30;99.90
20208;DHT22;10263;48.716;8.760;2023-04-30T11:35:59;16.80;99.90
20208;DHT22;10263;48.716;8.760;2023-04-30T11:38:28;16.50;99.90
20208;DHT22;10263;48.716;8.760;2023-04-30T11:40:55;16.60;99.90
20208;DHT22;10263;48.716;8.760;2023-04-30T11:43:23;16.30;99.90
20208;DHT22;10263;48.716;8.760;2023-04-30T11:46:07;16.30;99.90
20208;DHT22;10263;48.716;8.760;2023-04-30T11:48:37;16.00;99.90
20208;DHT22;10263;48.716;8.760;2023-04-30T11:51:12;16.10;99.90
20208;DHT22;10263;48.716;8.760;2023-04-30T11:53:39;16.20;99.90
20208;DHT22;10263;48.716;8.760;2023-04-30T11:56:07;16.20;99.90
20208;DHT22;10263;48.716;8.760;2023-04-30T11:58:34;16.00;99.70
20208;DHT22;10263;48.716;8.760;2023-04-30T12:01:03;16.20;99.80
20208;DHT22;10263;48.716;8.760;2023-04-30T12:05:59;16.00;98.30
20208;DHT22;10263;48.716;8.760;2023-04-30T12:08:27;15.90;98.60
20208;DHT22;10263;48.716;8.760;2023-04-30T12:10:54;15.80;99.90
20208;DHT22;10263;48.716;8.760;2023-04-30T12:13:21;15.80;99.90
20208;DHT22;10263;48.716;8.760;2023-04-30T12:15:57;16.00;99.90
20208;DHT22;10263;48.716;8.760;2023-04-30T12:18:25;15.90;99.90
20208;DHT22;10263;48.716;8.760;2023-04-30T12:20:52;15.80;99.00
20208;DHT22;10263;48.716;8.760;2023-04-30T12:23:21;15.70;99.20
20208;DHT22;10263;48.716;8.760;2023-04-30T12:25:48;16.10;99.10
20208;DHT22;10263;48.716;8.760;2023-04-30T12:28:15;16.40;99.80
20208;DHT22;10263;48.716;8.760;2023-04-30T12:30:42;16.50;99.20
20208;DHT22;10263;48.716;8.760;2023-04-30T12:33:09;16.10;99.60
20208;DHT22;10263;48.716;8.760;2023-04-30T12:35:36;16.70;99.40
20208;DHT22;10263;48.716;8.760;2023-04-30T12:38:07;16.60;99.10
20208;DHT22;10263;48.716;8.760;2023-04-30T12:40:36;16.40;99.50
20208;DHT22;10263;48.716;8.760;2023-04-30T12:43:04;16.60;98.60
20208;DHT22;10263;48.716;8.760;2023-04-30T12:45:49;16.90;97.00
20208;DHT22;10263;48.716;8.760;2023-04-30T12:48:21;17.10;98.60
20208;DHT22;10263;48.716;8.760;2023-04-30T12:50:53;17.30;97.70
20208;DHT22;10263;48.716;8.760;2023-04-30T12:53:20;17.10;97.40
20208;DHT22;10263;48.716;8.760;2023-04-30T12:56:08;17.10;96.90
20208;DHT22;10263;48.716;8.760;2023-04-30T12:58:35;17.60;97.20
20208;DHT22;10263;48.716;8.760;2023-04-30T13:01:02;17.80;96.10
20208;DHT22;10263;48.716;8.760;2023-04-30T13:03:29;17.80;95.40
20208;DHT22;10263;48.716;8.760;2023-04-30T13:05:55;17.50;94.50
20208;DHT22;10263;48.716;8.760;2023-04-30T13:08:23;17.30;93.80
20208;DHT22;10263;48.716;8.760;2023-04-30T13:10:50;17.80;95.00
20208;DHT22;10263;48.716;8.760;2023-04-30T13:13:18;17.80;95.10
20208;DHT22;10263;48.716;8.760;2023-04-30T13:18:12;17.40;94.70
20208;DHT22;10263;48.716;8.760;2023-04-30T13:20:40;17.50;94.60
20208;DHT22;10263;48.716;8.760;2023-04-30T13:23:08;17.30;95.70
20208;DHT22;10263;48.716;8.760;2023-04-30T13:25:37;17.70;95.60
20208;DHT22;10263;48.716;8.760;2023-04-30T13:28:04;17.70;95.50
20208;DHT22;10263;48.716;8.760;2023-04-30T13:30:33;17.50;94.10
20208;DHT22;10263;48.716;8.760;2023-04-30T13:33:00;17.10;94.50
20208;DHT22;10263;48.716;8.760;2023-04-30T13:35:27;17.40;95.70
20208;DHT22;10263;48.716;8.760;2023-04-30T13:37:57;17.80;95.70
20208;DHT22;10263;48.716;8.760;2023-04-30T13:40:24;17.50;94.70
20208;DHT22;10263;48.716;8.760;2023-04-30T13:42:51;17.50;94.60
20208;DHT22;10263;48.716;8.760;2023-04-30T13:45:18;17.50;95.40
20208;DHT22;10263;48.716;8.760;2023-04-30T13:47:46;17.50;94.90
20208;DHT22;10263;48.716;8.760;2023-04-30T13:50:13;17.60;94.50
20208;DHT22;10263;48.716;8.760;2023-04-30T13:52:40;17.40;95.20
20208;DHT22;10263;48.716;8.760;2023-04-30T13:55:07;17.60;94.40
20208;DHT22;10263;48.716;8.760;2023-04-30T13:57:34;17.40;94.40
20208;DHT22;10263;48.716;8.760;2023-04-30T14:00:02;17.60;94.70
20208;DHT22;10263;48.716;8.760;2023-04-30T14:02:33;17.30;93.90
20208;DHT22;10263;48.716;8.760;2023-04-30T14:05:01;17.10;95.00
20208;DHT22;10263;48.716;8.760;2023-04-30T14:07:29;17.30;95.00
20208;DHT22;10263;48.716;8.760;2023-04-30T14:09:56;17.40;95.80
20208;DHT22;10263;48.716;8.760;2023-04-30T14:12:23;16.90;95.00
20208;DHT22;10263;48.716;8.760;2023-04-30T14:14:50;16.90;95.40
20208;DHT22;10263;48.716;8.760;2023-04-30T14:17:17;17.10;95.10
20208;DHT22;10263;48.716;8.760;2023-04-30T14:19:43;17.30;94.80
20208;DHT22;10263;48.716;8.760;2023-04-30T14:22:12;17.20;94.80
20208;DHT22;10263;48.716;8.760;2023-04-30T14:24:39;18.00;94.60
20208;DHT22;10263;48.716;8.760;2023-04-30T14:27:06;17.40;94.00
20208;DHT22;10263;48.716;8.760;2023-04-30T14:29:32;17.50;94.30
20208;DHT22;10263;48.716;8.760;2023-04-30T14:31:59;18.00;93.50
20208;DHT22;10263;48.716;8.760;2023-04-30T14:34:26;17.80;93.60
20208;DHT22;10263;48.716;8.760;2023-04-30T14:36:53;18.00;93.90
20208;DHT22;10263;48.716;8.760;2023-04-30T14:39:25;18.20;93.80
20208;DHT22;10263;48.716;8.760;2023-04-30T14:41:52;17.90;94.80
20208;DHT22;10263;48.716;8.760;2023-04-30T14:44:21;18.30;93.20
20208;DHT22;10263;48.716;8.760;2023-04-30T14:46:48;17.70;93.90
20208;DHT22;10263;48.716;8.760;2023-04-30T14:49:15;18.10;92.80
20208;DHT22;10263;48.716;8.760;2023-04-30T14:54:09;17.60;92.50
20208;DHT22;10263;48.716;8.760;2023-04-30T14:56:37;18.00;93.50
20208;DHT22;10263;48.716;8.760;2023-04-30T14:59:04;17.50;92.90
20208;DHT22;10263;48.716;8.760;2023-04-30T15:01:31;17.90;92.90
20208;DHT22;10263;48.716;8.760;2023-04-30T15:06:25;17.60;93.10
20208;DHT22;10263;48.716;8.760;2023-04-30T15:08:52;17.50;92.60
20208;DHT22;10263;48.716;8.760;2023-04-30T15:11:18;18.00;93.70
20208;DHT22;10263;48.716;8.760;2023-04-30T15:13:46;17.60;92.70
20208;DHT22;10263;48.716;8.760;2023-04-30T15:16:13;17.70;93.50
20208;DHT22;10263;48.716;8.760;2023-04-30T15:18:41;18.00;92.30
20208;DHT22;10263;48.716;8.760;2023-04-30T15:21:08;18.10;92.90
20208;DHT22;10263;48.716;8.760;2023-04-30T15:26:02;17.90;91.70
20208;DHT22;10263;48.716;8.760;2023-04-30T15:28:30;17.50;91.80
20208;DHT22;10263;48.716;8.760;2023-04-30T15:30:58;17.20;92.40
20208;DHT22;10263;48.716;8.760;2023-04-30T15:33:26;17.30;92.80
20208;DHT22;10263;48.716;8.760;2023-04-30T15:35:55;17.00;93.30
20208;DHT22;10263;48.716;8.760;2023-04-30T15:38:21;17.60;93.60
20208;DHT22;10263;48.716;8.760;2023-04-30T15:40:48;17.30;93.30
20208;DHT22;10263;48.716;8.760;2023-04-30T15:43:15;17.20;92.30
20208;DHT22;10263;48.716;8.760;2023-04-30T15:45:43;17.50;92.70
20208;DHT22;10263;48.716;8.760;2023-04-30T15:48:11;17.00;92.70
20208;DHT22;10263;48.716;8.760;2023-04-30T15:50:38;16.90;93.00
20208;DHT22;10263;48.716;8.760;2023-04-30T15:53:05;17.10;93.80
20208;DHT22;10263;48.716;8.760;2023-04-30T15:55:32;17.20;94.00
20208;DHT22;10263;48.716;8.760;2023-04-30T15:57:59;16.90;93.00
20208;DHT22;10263;48.716;8.760;2023-04-30T16:00:26;16.90;93.70
20208;DHT22;10263;48.716;8.760;2023-04-30T16:02:54;17.00;94.10
20208;DHT22;10263;48.716;8.760;2023-04-30T16:05:22;17.10;94.30
20208;DHT22;10263;48.716;8.760;2023-04-30T16:07:50;16.70;93.20
20208;DHT22;10263;48.716;8.760;2023-04-30T16:10:18;17.00;93.30
20208;DHT22;10263;48.716;8.760;2023-04-30T16:12:46;16.80;93.60
20208;DHT22;10263;48.716;8.760;2023-04-30T16:15:12;16.40;94.40
20208;DHT22;10263;48.716;8.760;2023-04-30T16:17:39;17.00;93.50
20208;DHT22;10263;48.716;8.760;2023-04-30T16:20:07;16.70;94.10
20208;DHT22;10263;48.716;8.760;2023-04-30T16:22:36;16.70;94.00
20208;DHT22;10263;48.716;8.760;2023-04-30T16:25:03;16.50;94.60
20208;DHT22;10263;48.716;8.760;2023-04-30T16:27:32;16.70;93.90
20208;DHT22;10263;48.716;8.760;2023-04-30T16:29:59;16.60;94.90
20208;DHT22;10263;48.716;8.760;2023-04-30T16:32:25;16.40;94.10
20208;DHT22;10263;48.716;8.760;2023-04-30T16:34:52;16.40;93.80
20208;DHT22;10263;48.716;8.760;2023-04-30T16:37:19;16.10;93.60
20208;DHT22;10263;48.716;8.760;2023-04-30T16:39:47;16.40;94.00
20208;DHT22;10263;48.716;8.760;2023-04-30T16:42:14;16.40;94.20
20208;DHT22;10263;48.716;8.760;2023-04-30T16:44:41;15.70;94.10